Time;durP1;ratioP1;P1;durP2;ratioP2;P2;SDS_P1;SDS_P2;PMS_P1;PMS_P2;Temp;Humidity;BMP_temperature;BMP_pressure;BME280_temperature;BME280_humidity;BME280_pressure;Samples;Min_cycle;Max_cycle;Signal;HPM_P1;HPM_P2
2022/12/08 08:41:21;;;;;;;8.82;6.70;;;;;;;17.64;38.18;100799.25;5107521;27;20511;-47
2022/12/08 08:43:48;;;;;;;9.27;6.70;;;;;;;18.71;36.05;100785.66;5104705;28;20028;-45
2022/12/08 08:46:15;;;;;;;8.38;6.15;;;;;;;19.53;34.13;100787.28;5109945;28;20137;-46
2022/12/08 08:48:44;;;;;;;7.85;5.80;;;;;;;20.17;33.18;100787.31;5107958;28;20425;-47
2022/12/08 08:51:14;;;;;;;8.68;5.35;;;;;;;20.56;32.50;100796.09;5107949;28;20103;-49
2022/12/08 08:53:42;;;;;;;10.32;5.60;;;;;;;20.84;31.98;100794.22;5109471;28;20085;-46
2022/12/08 08:56:11;;;;;;;8.15;5.43;;;;;;;21.06;31.65;100788.63;5109760;28;20016;-47
2022/12/08 08:58:39;;;;;;;6.05;4.70;;;;;;;21.24;31.31;100784.66;5109263;28;20032;-46
2022/12/08 09:01:08;;;;;;;18.00;13.57;;;;;;;21.38;31.18;100790.19;5109239;28;20035;-50
2022/12/08 09:03:37;;;;;;;11.35;9.13;;;;;;;21.49;30.82;100779.97;5109600;28;20030;-49
2022/12/08 09:06:05;;;;;;;11.95;7.93;;;;;;;21.59;30.88;100784.50;5109103;28;20024;-47
2022/12/08 09:08:34;;;;;;;12.32;8.15;;;;;;;21.66;30.78;100783.84;5109179;28;20109;-50
2022/12/08 09:11:03;;;;;;;8.63;7.07;;;;;;;21.75;30.85;100777.91;5109030;28;20041;-46
2022/12/08 09:13:31;;;;;;;10.90;6.95;;;;;;;21.83;30.69;100776.31;5109414;28;20024;-45
2022/12/08 09:16:01;;;;;;;11.35;6.60;;;;;;;21.86;30.67;100770.25;5105702;28;20034;-47
2022/12/08 09:18:30;;;;;;;8.85;6.85;;;;;;;21.94;30.64;100771.28;5093027;28;20028;-46
2022/12/08 09:21:03;;;;;;;12.95;6.07;;;;;;;22.03;30.28;100769.69;5093894;28;20031;-46
2022/12/08 09:23:30;;;;;;;26.52;5.75;;;;;;;22.14;30.45;100768.16;5090785;28;20033;-46
2022/12/08 09:25:57;;;;;;;6.90;4.95;;;;;;;22.16;30.61;100772.56;5094634;28;20024;-51
2022/12/08 09:28:24;;;;;;;7.57;5.47;;;;;;;22.16;30.24;100767.34;5097972;28;20112;-46
2022/12/08 09:30:52;;;;;;;6.07;4.72;;;;;;;22.21;30.24;100756.09;5099859;28;20494;-47
2022/12/08 09:33:19;;;;;;;6.05;4.65;;;;;;;22.23;30.40;100760.47;5107398;28;20479;-46
2022/12/08 09:35:48;;;;;;;6.18;4.32;;;;;;;22.32;30.10;100767.59;5108010;28;20027;-46
2022/12/08 09:38:16;;;;;;;5.53;3.75;;;;;;;22.38;30.25;100772.03;5109184;28;20031;-47
2022/12/08 09:40:51;;;;;;;4.85;3.67;;;;;;;22.44;30.04;100766.97;5103572;28;20204;-46
2022/12/08 09:43:39;;;;;;;5.18;3.42;;;;;;;22.46;29.94;100760.88;5108913;28;20388;-47
2022/12/08 09:46:09;;;;;;;5.20;3.53;;;;;;;22.52;30.19;100759.25;5100976;28;20036;-49
2022/12/08 09:48:41;;;;;;;4.93;3.28;;;;;;;22.51;29.98;100758.34;5107694;28;20141;-46
2022/12/08 09:51:11;;;;;;;7.13;3.20;;;;;;;22.63;30.08;100760.28;5080650;28;20503;-47
2022/12/08 09:53:46;;;;;;;5.55;3.20;;;;;;;22.63;30.32;100762.88;5088450;28;20119;-47
2022/12/08 09:56:16;;;;;;;;;;;;;;;22.65;30.01;100758.56;5094081;28;20028;-47
2022/12/08 09:58:46;;;;;;;4.28;2.88;;;;;;;22.77;29.83;100763.97;5092602;28;19916;-47
2022/12/08 10:01:15;;;;;;;8.88;3.05;;;;;;;22.83;29.84;100764.94;5090828;28;20120;-47
2022/12/08 10:03:44;;;;;;;3.72;2.60;;;;;;;22.84;29.86;100764.94;5094793;28;20026;-46
2022/12/08 10:06:30;;;;;;;4.40;2.50;;;;;;;22.88;29.92;100764.13;5094590;28;20556;-46
2022/12/08 10:09:04;;;;;;;5.30;2.42;;;;;;;22.92;29.71;100771.19;5093376;28;20032;-46
2022/12/08 10:11:38;;;;;;;4.30;2.40;;;;;;;22.97;29.96;100765.13;5094432;28;20035;-47
2022/12/08 10:14:31;;;;;;;5.45;2.60;;;;;;;22.99;29.63;100771.28;5089653;28;20039;-47
2022/12/08 10:17:05;;;;;;;2.45;1.95;;;;;;;23.01;29.84;100757.34;5079456;28;20067;-47
2022/12/08 10:19:35;;;;;;;3.42;2.10;;;;;;;23.12;29.95;100754.88;5092571;28;20020;-47
2022/12/08 10:22:22;;;;;;;2.53;1.63;;;;;;;23.13;30.00;100751.41;5094673;28;20025;-47
2022/12/08 10:25:10;;;;;;;3.25;2.13;;;;;;;23.18;29.99;100743.59;5092504;28;20469;-48
2022/12/08 10:27:39;;;;;;;4.22;1.40;;;;;;;23.06;29.93;100716.44;5089188;28;20464;-46
2022/12/08 10:30:14;;;;;;;3.42;1.80;;;;;;;23.22;29.51;100734.97;5091936;28;20047;-47
2022/12/08 10:32:44;;;;;;;2.92;1.67;;;;;;;23.31;29.96;100737.69;5090462;28;20077;-47
2022/12/08 10:35:15;;;;;;;3.92;1.50;;;;;;;23.33;29.44;100724.66;5089448;28;20123;-46
2022/12/08 10:37:56;;;;;;;3.10;1.98;;;;;;;23.31;29.45;100724.59;5088879;28;20032;-46
2022/12/08 10:40:27;;;;;;;4.03;1.80;;;;;;;23.32;29.67;100721.13;5089264;28;20139;-47
2022/12/08 10:42:57;;;;;;;2.97;1.73;;;;;;;23.33;29.86;100724.66;5094521;28;20377;-46
2022/12/08 10:45:45;;;;;;;2.53;1.30;;;;;;;23.41;29.65;100727.34;5094059;28;20103;-46
2022/12/08 10:48:17;;;;;;;3.03;1.58;;;;;;;23.48;29.32;100724.81;5088854;28;20500;-47
2022/12/08 10:50:56;;;;;;;1.55;1.23;;;;;;;23.51;29.60;100716.97;5089965;28;20032;-48
2022/12/08 10:53:28;;;;;;;2.47;1.17;;;;;;;23.51;29.75;100711.75;5091784;28;20024;-46
2022/12/08 10:56:06;;;;;;;1.90;1.30;;;;;;;23.51;29.25;100703.03;5094069;28;20063;-47
2022/12/08 10:58:40;;;;;;;1.65;1.20;;;;;;;23.55;29.52;100704.81;5093624;28;20468;-46
2022/12/08 11:01:21;;;;;;;1.58;1.20;;;;;;;23.55;29.84;100711.78;5090607;28;20040;-50
2022/12/08 11:03:59;;;;;;;2.25;1.10;;;;;;;23.59;29.78;100706.59;5087805;28;20111;-49
2022/12/08 11:06:28;;;;;;;4.07;1.13;;;;;;;23.62;29.68;100705.75;5094664;28;20049;-47
2022/12/08 11:08:59;;;;;;;1.75;1.13;;;;;;;23.64;29.22;100697.03;5094097;28;20106;-46
2022/12/08 11:12:05;;;;;;;1.75;1.17;;;;;;;23.65;29.70;100698.81;5094175;28;20023;-47
2022/12/08 11:14:38;;;;;;;1.40;0.98;;;;;;;23.66;29.47;100692.72;5089801;28;20111;-49
2022/12/08 11:17:26;;;;;;;2.08;1.20;;;;;;;23.66;29.50;100692.72;5094253;28;20043;-47
2022/12/08 11:20:01;;;;;;;2.15;0.90;;;;;;;23.77;29.50;100694.53;5094350;28;20035;-47
2022/12/08 11:22:31;;;;;;;1.65;0.80;;;;;;;23.76;29.48;100685.81;5094407;28;20020;-47
2022/12/08 11:25:02;;;;;;;1.95;1.08;;;;;;;23.71;29.12;100677.03;5094067;28;20373;-46
2022/12/08 11:27:32;;;;;;;3.45;1.10;;;;;;;23.75;29.45;100673.59;5094138;28;20021;-47
2022/12/08 11:30:01;;;;;;;1.42;0.88;;;;;;;23.77;29.25;100677.09;5094549;28;20430;-47
2022/12/08 11:32:30;;;;;;;4.65;1.02;;;;;;;23.80;29.40;100669.28;5093984;28;20110;-49
2022/12/08 11:35:02;;;;;;;2.50;1.20;;;;;;;23.84;29.38;100664.94;5094106;28;20060;-46
2022/12/08 11:37:37;;;;;;;1.35;0.88;;;;;;;23.81;29.19;100660.56;5093908;28;20435;-45
2022/12/08 11:40:10;;;;;;;2.83;0.80;;;;;;;23.81;29.56;100665.78;5092566;28;20047;-46
2022/12/08 11:43:04;;;;;;;3.03;0.90;;;;;;;23.78;29.72;100662.25;5092694;28;20020;-48
2022/12/08 11:45:35;;;;;;;6.18;0.82;;;;;;;23.86;29.23;100662.31;5090394;28;20043;-47
2022/12/08 11:48:11;;;;;;;21.13;15.57;;;;;;;23.84;29.16;100662.31;5093860;28;20028;-50
2022/12/08 11:50:50;;;;;;;21.20;13.90;;;;;;;23.87;29.52;100656.22;5092582;28;20028;-47
2022/12/08 11:53:25;;;;;;;26.17;12.48;;;;;;;23.85;29.54;100658.84;5093394;28;20036;-47
2022/12/08 11:55:57;;;;;;;20.13;11.27;;;;;;;23.83;29.75;100661.41;5093888;28;20093;-46
2022/12/08 11:58:55;;;;;;;15.02;10.02;;;;;;;23.91;29.62;100658.88;5092217;28;20028;-46
2022/12/08 12:01:25;;;;;;;19.05;9.38;;;;;;;23.88;29.53;100651.00;5090114;28;20040;-47
2022/12/08 12:04:18;;;;;;;11.65;7.68;;;;;;;23.82;29.56;100657.06;5093544;28;20035;-47
2022/12/08 12:07:25;;;;;;;38.20;8.27;;;;;;;23.90;30.18;100651.00;5087371;28;20046;-48
2022/12/08 12:10:04;;;;;;;21.20;7.28;;;;;;;23.90;30.06;100648.38;5088008;28;20047;-46
2022/12/08 12:12:56;;;;;;;19.88;7.53;;;;;;;23.93;29.99;100645.78;5093439;28;20401;-45
2022/12/08 12:15:33;;;;;;;16.05;5.85;;;;;;;23.97;29.89;100640.63;5092926;28;20024;-47
2022/12/08 12:18:05;;;;;;;15.30;6.38;;;;;;;24.01;30.01;100646.75;5093322;28;20473;-43
2022/12/08 12:20:46;;;;;;;16.35;6.68;;;;;;;24.05;29.84;100631.97;5091936;28;20028;-46
2022/12/08 12:23:20;;;;;;;11.77;4.95;;;;;;;24.10;29.48;100641.59;5093341;28;20046;-44
2022/12/08 12:25:57;;;;;;;12.13;5.50;;;;;;;24.11;29.62;100632.88;5093557;28;20473;-45
2022/12/08 12:28:28;;;;;;;9.90;5.18;;;;;;;24.16;29.50;100630.28;5093211;28;20024;-47
2022/12/08 12:31:02;;;;;;;9.02;4.30;;;;;;;24.13;29.45;100627.63;5093280;28;20031;-44
2022/12/08 12:33:32;;;;;;;9.15;4.90;;;;;;;24.16;29.79;100629.41;5093386;28;20101;-51
2022/12/08 12:36:06;;;;;;;12.07;4.15;;;;;;;24.17;29.39;100626.78;5093270;28;20024;-51
2022/12/08 12:39:19;;;;;;;6.57;4.00;;;;;;;24.22;29.40;100630.34;5093014;28;20107;-47
2022/12/08 12:41:28;;;;;;;8.57;3.15;;;;;;;24.25;29.33;100625.09;5088942;28;20725;-48
2022/12/08 12:44:15;;;;;;;9.88;3.30;;;;;;;24.23;29.43;100623.31;5091835;28;20020;-46
2022/12/08 12:46:47;;;;;;;10.68;3.05;;;;;;;24.26;29.71;100616.34;5092779;28;20032;-44
2022/12/08 12:49:38;;;;;;;12.27;3.22;;;;;;;24.27;29.35;100610.25;5093053;28;20032;-44
2022/12/08 12:52:10;;;;;;;5.78;2.67;;;;;;;24.27;29.36;100602.38;5086848;28;20032;-48
2022/12/08 12:54:43;;;;;;;7.03;2.63;;;;;;;24.31;29.69;100594.53;5093076;28;20121;-43
2022/12/08 12:57:12;;;;;;;9.52;2.53;;;;;;;24.29;29.73;100594.53;5092552;28;20036;-42
2022/12/08 12:59:59;;;;;;;7.20;2.22;;;;;;;24.36;29.29;100600.69;5092873;28;20570;-48
2022/12/08 13:02:51;;;;;;;5.22;2.60;;;;;;;24.36;29.51;100595.44;5092991;28;20089;-45
2022/12/08 13:05:24;;;;;;;7.85;2.28;;;;;;;24.39;29.61;100585.84;5083428;28;20527;-46
2022/12/08 13:07:56;;;;;;;4.05;1.77;;;;;;;24.38;29.62;100596.34;5092722;28;20039;-47
2022/12/08 13:10:26;;;;;;;9.57;2.33;;;;;;;24.41;29.63;100583.22;5092864;28;20024;-49
2022/12/08 13:13:15;;;;;;;8.27;2.40;;;;;;;24.40;29.50;100576.25;5092881;28;20534;-45
2022/12/08 13:16:13;;;;;;;5.97;2.00;;;;;;;24.47;29.28;100571.91;5092530;28;20543;-46
2022/12/08 13:18:46;;;;;;;4.90;2.22;;;;;;;24.49;29.59;100570.19;5092795;28;20027;-44
2022/12/08 13:21:18;;;;;;;5.50;1.98;;;;;;;24.47;29.67;100578.03;5092793;28;20392;-51
2022/12/08 13:24:06;;;;;;;2.78;1.70;;;;;;;24.51;29.29;100569.31;5092562;28;20030;-46
2022/12/08 13:26:45;;;;;;;5.63;2.00;;;;;;;24.51;29.45;100558.81;5087580;28;20063;-43
2022/12/08 13:29:25;;;;;;;4.38;1.52;;;;;;;24.52;29.18;100562.31;5096596;28;20078;-44
2022/12/08 13:31:58;;;;;;;7.30;2.00;;;;;;;24.57;29.23;100548.34;5096589;28;20026;-43
2022/12/08 13:34:40;;;;;;;5.78;1.70;;;;;;;24.53;29.58;100538.72;5095256;28;20024;-43
2022/12/08 13:37:21;;;;;;;4.25;1.90;;;;;;;24.54;29.50;100543.09;5096144;28;20533;-46
2022/12/08 13:39:51;;;;;;;4.00;2.20;;;;;;;24.61;29.40;100544.00;5096072;28;20119;-44
2022/12/08 13:42:42;;;;;;;4.55;2.70;;;;;;;24.57;29.54;100545.72;5096215;28;20123;-49
2022/12/08 13:45:19;;;;;;;4.55;2.85;;;;;;;24.63;29.44;100547.50;5089780;28;20042;-46
2022/12/08 13:47:54;;;;;;;4.10;2.88;;;;;;;24.67;29.45;100533.50;5095547;28;20099;-48
2022/12/08 13:50:29;;;;;;;3.90;2.88;;;;;;;24.66;29.27;100530.91;5095994;28;20028;-46
2022/12/08 13:53:00;;;;;;;4.25;2.92;;;;;;;24.63;29.42;100525.63;5096076;28;20029;-47
2022/12/08 13:55:37;;;;;;;5.78;3.33;;;;;;;24.68;29.00;100530.03;5095900;28;20034;-44
2022/12/08 13:58:06;;;;;;;5.93;3.17;;;;;;;24.69;29.09;100517.81;5095551;28;20074;-47
2022/12/08 14:00:34;;;;;;;4.57;2.83;;;;;;;24.69;29.15;100526.53;5095653;28;20024;-43
2022/12/08 14:03:03;;;;;;;6.18;4.10;;;;;;;24.63;29.02;100516.03;5095952;28;20024;-47
2022/12/08 14:05:40;;;;;;;6.43;3.03;;;;;;;24.66;28.94;100517.78;5096126;28;20020;-46
2022/12/08 14:08:20;;;;;;;4.00;2.75;;;;;;;24.67;29.30;100512.53;5095233;28;20465;-44
2022/12/08 14:10:53;;;;;;;4.38;3.10;;;;;;;24.72;28.97;100505.59;5095110;28;20028;-43
2022/12/08 14:13:22;;;;;;;4.30;2.90;;;;;;;24.78;28.93;100509.13;5095517;28;20073;-47
2022/12/08 14:15:50;;;;;;;4.32;2.72;;;;;;;24.78;29.20;100509.13;5077644;28;20067;-51
2022/12/08 14:18:31;;;;;;;6.13;3.25;;;;;;;24.69;29.27;100500.28;5094301;28;20037;-46
2022/12/08 14:21:05;;;;;;;4.97;2.80;;;;;;;24.72;29.03;100500.34;5095446;28;20107;-43
2022/12/08 14:23:37;;;;;;;4.13;2.33;;;;;;;24.73;29.15;100498.63;5095323;28;20366;-47
2022/12/08 14:26:07;;;;;;;4.50;2.38;;;;;;;24.73;28.96;100488.97;5095638;28;20103;-51
2022/12/08 14:28:35;;;;;;;3.17;2.28;;;;;;;24.73;29.20;100478.50;5093993;28;20094;-43
2022/12/08 14:31:04;;;;;;;5.68;2.50;;;;;;;24.78;28.88;100486.38;5095208;28;20442;-47
2022/12/08 14:33:33;;;;;;;5.18;2.17;;;;;;;24.75;28.99;100473.22;5095327;28;20024;-46
2022/12/08 14:36:01;;;;;;;4.63;2.55;;;;;;;24.73;29.10;100485.50;5095128;28;20468;-45
2022/12/08 14:38:30;;;;;;;3.95;2.40;;;;;;;24.75;28.89;100480.25;5093717;28;20028;-46
2022/12/08 14:41:05;;;;;;;4.03;2.35;;;;;;;24.71;28.95;100479.38;5093235;28;20050;-49
2022/12/08 14:43:33;;;;;;;3.72;2.22;;;;;;;24.72;29.08;100475.88;5095007;28;20032;-48
2022/12/08 14:46:04;;;;;;;4.28;2.25;;;;;;;24.73;29.29;100475.88;5094879;28;20040;-50
2022/12/08 14:48:33;;;;;;;5.22;2.90;;;;;;;24.79;29.00;100472.38;5094720;28;20461;-45
2022/12/08 14:51:24;;;;;;;23.02;15.07;;;;;;;24.80;28.53;100471.50;5095198;28;20043;-48
2022/12/08 14:54:13;;;;;;;67.22;39.47;;;;;;;24.73;29.02;100473.25;5091644;28;20036;-48
2022/12/08 14:56:47;;;;;;;69.00;37.67;;;;;;;24.80;29.04;100470.66;5093388;28;20028;-44
2022/12/08 14:59:25;;;;;;;62.70;32.90;;;;;;;24.78;28.90;100481.13;5094645;28;20028;-48
2022/12/08 15:02:10;;;;;;;54.72;31.90;;;;;;;24.75;28.63;100468.00;5094193;28;20031;-47
2022/12/08 15:04:41;;;;;;;51.70;30.13;;;;;;;24.77;29.22;100461.00;5094563;28;20426;-47
2022/12/08 15:07:15;;;;;;;50.92;27.95;;;;;;;24.79;28.66;100466.28;5094169;28;20085;-47
2022/12/08 15:09:46;;;;;;;40.70;25.33;;;;;;;24.84;28.64;100464.50;5094852;28;20051;-51
2022/12/08 15:12:14;;;;;;;43.13;24.08;;;;;;;24.84;28.91;100467.13;5094407;28;20434;-45
2022/12/08 15:15:03;;;;;;;45.67;25.20;;;;;;;24.81;29.26;100459.28;5094079;28;20381;-51
2022/12/08 15:17:36;;;;;;;35.95;20.60;;;;;;;24.81;28.66;100459.28;5088340;28;20036;-46
2022/12/08 15:20:05;;;;;;;39.70;20.50;;;;;;;24.79;29.07;100458.41;5093619;28;20384;-51
2022/12/08 15:22:33;;;;;;;79.78;19.83;;;;;;;24.84;28.87;100456.63;5094361;28;20039;-46
2022/12/08 15:25:01;;;;;;;33.67;18.33;;;;;;;24.86;29.01;100460.13;5092803;28;20385;-46
2022/12/08 15:27:30;;;;;;;32.53;16.92;;;;;;;24.88;28.82;100455.78;5093873;28;20153;-49
2022/12/08 15:29:59;;;;;;;27.83;16.15;;;;;;;24.91;29.29;100450.53;5093882;28;20032;-45
2022/12/08 15:32:27;;;;;;;32.47;15.65;;;;;;;24.92;28.91;100452.28;5093848;28;20020;-47
2022/12/08 15:34:56;;;;;;;24.88;14.50;;;;;;;24.96;28.68;100458.41;5093962;28;20024;-49
2022/12/08 15:37:25;;;;;;;31.23;15.07;;;;;;;24.97;28.78;100453.19;5093894;28;20373;-47
2022/12/08 15:39:54;;;;;;;23.88;13.10;;;;;;;25.01;28.72;100449.66;5093579;28;20059;-47
2022/12/08 15:42:21;;;;;;;21.63;12.35;;;;;;;25.02;28.76;100442.69;5085120;28;20051;-44
2022/12/08 15:44:48;;;;;;;20.00;11.27;;;;;;;25.06;28.93;100444.44;5084052;28;20107;-46
2022/12/08 15:47:18;;;;;;;25.73;10.88;;;;;;;25.08;28.98;100449.66;5092146;28;20380;-47
2022/12/08 15:49:47;;;;;;;18.52;10.30;;;;;;;25.09;28.95;100451.41;5092364;28;20032;-43
2022/12/08 15:52:17;;;;;;;20.33;10.75;;;;;;;25.09;28.67;100448.81;5087399;28;20027;-48
2022/12/08 15:54:44;;;;;;;18.88;10.48;;;;;;;25.09;28.37;100449.66;5090757;28;20024;-46
2022/12/08 15:57:19;;;;;;;19.00;9.90;;;;;;;25.12;28.51;100447.03;5092242;28;20020;-47
2022/12/08 15:59:46;;;;;;;20.48;8.98;;;;;;;25.15;29.01;100446.19;5092610;28;20536;-46
2022/12/08 16:02:15;;;;;;;15.98;8.75;;;;;;;25.21;28.84;100451.41;5088390;28;20035;-49
2022/12/08 16:04:42;;;;;;;16.00;8.40;;;;;;;25.20;28.76;100449.66;5092594;28;20052;-43
2022/12/08 16:07:29;;;;;;;15.40;8.15;;;;;;;25.17;28.59;100439.16;5089417;28;20051;-43
2022/12/08 16:09:56;;;;;;;13.13;7.20;;;;;;;25.21;28.49;100448.78;5089287;28;20032;-43
2022/12/08 16:15:12;;;;;;;11.18;6.53;;;;;;;25.23;28.42;100452.28;5090539;28;20046;-47
2022/12/08 16:17:41;;;;;;;11.50;6.65;;;;;;;25.24;28.62;100459.28;5089508;28;20035;-46
2022/12/08 16:20:15;;;;;;;9.98;5.68;;;;;;;25.25;28.37;100447.91;5092425;28;20115;-43
2022/12/08 16:22:43;;;;;;;10.20;6.05;;;;;;;25.25;28.49;100453.16;5086916;28;20530;-45
2022/12/08 16:25:12;;;;;;;9.85;5.88;;;;;;;25.24;28.31;100461.91;5092057;28;20039;-44
2022/12/08 16:27:40;;;;;;;9.63;5.78;;;;;;;25.27;28.68;100471.53;5091719;28;20092;-44
2022/12/08 16:30:12;;;;;;;10.38;5.40;;;;;;;25.26;28.44;100461.91;5092088;28;20384;-47
2022/12/08 16:32:39;;;;;;;11.23;5.40;;;;;;;25.28;28.42;100466.31;5086929;28;20024;-47
2022/12/08 16:35:06;;;;;;;8.68;4.82;;;;;;;25.33;28.51;100466.28;5092234;28;20481;-43
2022/12/08 16:37:33;;;;;;;11.70;4.43;;;;;;;25.30;28.38;100464.56;5086532;28;20039;-45
2022/12/08 16:40:01;;;;;;;9.52;4.50;;;;;;;25.34;28.37;100471.53;5091812;28;20074;-44
2022/12/08 16:42:51;;;;;;;6.97;3.72;;;;;;;25.38;28.34;100472.44;5084605;28;20028;-48
2022/12/08 16:45:20;;;;;;;7.82;4.40;;;;;;;25.35;28.41;100467.16;5085677;28;20035;-43
2022/12/08 16:47:51;;;;;;;8.82;4.75;;;;;;;25.34;28.36;100471.53;5090796;28;20031;-45
2022/12/08 16:50:23;;;;;;;8.48;4.60;;;;;;;25.37;28.54;100477.66;5091219;28;20032;-43
2022/12/08 16:52:56;;;;;;;12.30;7.05;;;;;;;25.44;28.34;100476.81;5085778;28;20020;-42
2022/12/08 16:55:25;;;;;;;10.85;6.40;;;;;;;25.40;28.13;100470.66;5091781;28;20028;-43
2022/12/08 16:57:53;;;;;;;10.45;5.90;;;;;;;25.43;28.24;100472.44;5091616;28;20032;-47
2022/12/08 17:00:23;;;;;;;11.40;5.85;;;;;;;25.42;28.24;100471.56;5090605;28;20161;-43
2022/12/08 17:02:51;;;;;;;12.48;5.65;;;;;;;25.42;28.06;100461.06;5089332;28;20028;-46
2022/12/08 17:05:20;;;;;;;8.38;5.03;;;;;;;25.44;28.01;100468.94;5093286;28;20032;-46
2022/12/08 17:07:49;;;;;;;9.45;4.40;;;;;;;25.45;27.98;100470.69;5094753;28;20385;-42
2022/12/08 17:10:19;;;;;;;10.00;3.90;;;;;;;25.43;28.06;100467.19;5095871;28;20039;-44
2022/12/08 17:12:46;;;;;;;6.97;3.97;;;;;;;25.41;27.94;100466.28;5086314;28;20028;-43
2022/12/08 17:15:16;;;;;;;8.10;3.38;;;;;;;25.39;28.12;100458.41;5086678;28;20161;-46
2022/12/08 17:17:43;;;;;;;5.40;3.60;;;;;;;25.40;28.25;100470.66;5087298;28;20556;-46
2022/12/08 17:20:14;;;;;;;9.32;3.50;;;;;;;25.39;28.09;100463.69;5095265;28;20038;-45
2022/12/08 17:22:42;;;;;;;6.32;3.28;;;;;;;25.39;28.13;100463.69;5091407;28;20024;-48
2022/12/08 17:25:11;;;;;;;5.43;2.70;;;;;;;25.43;28.08;100469.81;5095021;28;20115;-48
2022/12/08 17:27:40;;;;;;;7.28;4.72;;;;;;;25.47;27.89;100461.06;5095872;28;20358;-45
2022/12/08 17:30:11;;;;;;;9.48;4.97;;;;;;;25.42;28.16;100465.44;5094873;28;20031;-46
2022/12/08 17:32:40;;;;;;;7.88;4.90;;;;;;;25.41;27.90;100463.66;5091347;28;20051;-46
2022/12/08 17:35:08;;;;;;;8.90;4.93;;;;;;;25.45;27.69;100471.56;5090656;28;20025;-48
2022/12/08 17:37:37;;;;;;;9.60;4.93;;;;;;;25.44;28.00;100471.56;5095736;28;20106;-48
2022/12/08 17:40:05;;;;;;;7.10;4.25;;;;;;;25.45;27.85;100465.44;5094675;28;20079;-48
2022/12/08 17:42:34;;;;;;;7.30;4.72;;;;;;;25.45;27.44;100462.81;5093293;28;20059;-43
2022/12/08 17:45:03;;;;;;;6.82;4.18;;;;;;;25.40;27.76;100452.25;5095418;28;20072;-43
2022/12/08 17:47:31;;;;;;;7.32;4.05;;;;;;;25.44;27.91;100454.06;5095804;28;20020;-45
2022/12/08 17:50:00;;;;;;;6.82;4.03;;;;;;;25.41;27.72;100461.91;5094681;28;20503;-44
2022/12/08 17:52:27;;;;;;;7.88;3.90;;;;;;;25.03;27.81;100405.06;5091433;28;20144;-44
2022/12/08 17:54:56;;;;;;;5.60;3.50;;;;;;;25.38;27.62;100455.78;5087486;28;20086;-48
2022/12/08 17:57:25;;;;;;;8.18;3.47;;;;;;;25.33;27.80;100451.41;5091435;28;20024;-46
2022/12/08 17:59:53;;;;;;;3.70;2.75;;;;;;;25.33;27.84;100456.66;5090819;28;20032;-49
2022/12/08 18:02:22;;;;;;;7.97;4.03;;;;;;;25.29;27.58;100460.19;5093945;28;20482;-42
2022/12/08 18:04:50;;;;;;;4.00;2.90;;;;;;;25.36;27.40;100453.16;5095085;28;20016;-44
2022/12/08 18:07:19;;;;;;;5.05;3.03;;;;;;;25.33;27.38;100450.53;5095058;28;20063;-44
2022/12/08 18:09:48;;;;;;;6.07;3.05;;;;;;;25.35;27.79;100454.03;5094860;28;20069;-44
2022/12/08 18:12:16;;;;;;;14.38;9.50;;;;;;;25.30;27.71;100459.31;5091114;28;20495;-46
2022/12/08 18:14:45;;;;;;;12.02;7.95;;;;;;;25.32;27.33;100454.91;5094850;28;20032;-48
2022/12/08 18:17:13;;;;;;;11.05;6.57;;;;;;;25.30;27.45;100461.03;5094956;28;20028;-46
2022/12/08 18:19:41;;;;;;;9.90;6.75;;;;;;;25.32;27.50;100454.91;5090171;28;20028;-46
2022/12/08 18:22:08;;;;;;;9.57;5.47;;;;;;;25.31;27.38;100455.81;5090799;28;20032;-44
2022/12/08 18:24:36;;;;;;;8.32;5.55;;;;;;;25.30;27.31;100448.81;5090110;28;20125;-43
2022/12/08 18:27:03;;;;;;;11.68;5.38;;;;;;;25.39;27.21;100442.66;5094645;28;20510;-43
2022/12/08 18:29:31;;;;;;;8.38;4.65;;;;;;;25.33;27.36;100443.53;5094695;28;20028;-45
2022/12/08 18:32:01;;;;;;;8.68;4.85;;;;;;;25.32;27.55;100441.78;5086554;28;20423;-55
2022/12/08 18:34:29;;;;;;;6.03;4.15;;;;;;;25.38;27.71;100440.91;5090408;28;20031;-47
2022/12/08 18:36:57;;;;;;;5.65;4.20;;;;;;;25.36;27.68;100442.66;5093922;28;20020;-43
2022/12/08 18:39:28;;;;;;;7.35;3.58;;;;;;;25.34;27.28;100434.78;5093948;28;20040;-46
2022/12/08 18:41:57;;;;;;;5.07;3.70;;;;;;;25.33;27.62;100434.78;5090377;28;20024;-46
2022/12/08 18:44:25;;;;;;;6.05;3.45;;;;;;;25.35;27.52;100435.66;5094125;28;20404;-48
2022/12/08 18:46:54;;;;;;;8.50;3.70;;;;;;;25.41;27.35;100440.03;5094003;28;20035;-47
2022/12/08 18:49:21;;;;;;;5.35;3.33;;;;;;;25.38;27.56;100430.41;5093699;28;20028;-44
2022/12/08 18:51:50;;;;;;;7.43;3.42;;;;;;;25.36;27.53;100426.03;5089638;28;20337;-44
2022/12/08 18:54:17;;;;;;;6.57;3.10;;;;;;;25.39;27.27;100437.41;5094182;28;20031;-43
2022/12/08 18:56:44;;;;;;;7.65;2.72;;;;;;;25.36;27.51;100433.91;5092349;28;20029;-43
2022/12/08 18:59:12;;;;;;;5.00;2.63;;;;;;;25.38;27.78;100427.78;5093960;28;20060;-51
2022/12/08 19:01:41;;;;;;;5.20;3.10;;;;;;;25.39;27.69;100431.28;5093147;28;20039;-44
2022/12/08 19:04:10;;;;;;;6.40;2.75;;;;;;;25.35;27.94;100427.78;5093609;28;20393;-49
2022/12/08 19:06:39;;;;;;;4.82;2.47;;;;;;;25.39;27.74;100436.53;5089946;28;20038;-50
2022/12/08 19:09:09;;;;;;;5.45;3.17;;;;;;;25.41;27.97;100426.91;5088745;28;20031;-46
2022/12/08 19:11:36;;;;;;;6.55;2.85;;;;;;;25.42;27.86;100421.66;5088646;28;20028;-46
2022/12/08 19:14:03;;;;;;;6.35;3.03;;;;;;;25.46;27.91;100423.41;5092853;28;20024;-46
2022/12/08 19:16:31;;;;;;;7.60;3.13;;;;;;;25.48;28.12;100420.81;5093373;28;20032;-48
2022/12/08 19:19:00;;;;;;;15.23;5.35;;;;;;;25.38;28.21;100416.41;5093650;28;20043;-48
2022/12/08 19:21:29;;;;;;;17.92;5.68;;;;;;;25.39;28.21;100418.16;5088926;28;20028;-48
2022/12/08 19:23:57;;;;;;;13.25;4.95;;;;;;;25.41;28.47;100414.63;5087352;28;20082;-44
2022/12/08 19:26:26;;;;;;;21.45;5.85;;;;;;;25.43;28.47;100414.69;5093330;28;20043;-43
2022/12/08 19:28:54;;;;;;;19.60;5.75;;;;;;;25.42;28.64;100415.56;5093227;28;20066;-43
2022/12/08 19:31:23;;;;;;;19.08;6.22;;;;;;;25.46;28.36;100417.31;5088216;28;20051;-50
2022/12/08 19:33:50;;;;;;;22.13;7.30;;;;;;;25.51;28.71;100414.66;5091740;28;20111;-44
2022/12/08 19:36:22;;;;;;;22.70;7.03;;;;;;;25.48;28.72;100407.69;5089542;28;20062;-44
2022/12/08 19:45:10;;;;;;;19.27;6.35;;;;;;;25.57;28.92;100410.25;5092292;28;20045;-44
2022/12/08 19:47:14;;;;;;;22.02;6.80;;;;;;;25.50;28.71;100411.16;5089458;28;20040;-43
2022/12/08 19:49:43;;;;;;;18.02;5.93;;;;;;;25.50;28.84;100411.16;5092963;28;20035;-46
2022/12/08 19:52:10;;;;;;;20.10;6.32;;;;;;;25.54;28.75;100419.91;5091591;28;20036;-46
2022/12/08 19:54:39;;;;;;;20.73;7.60;;;;;;;25.50;28.89;100405.03;5092454;28;20103;-51
2022/12/08 19:57:07;;;;;;;20.83;6.93;;;;;;;25.52;28.88;100416.41;5092547;28;20024;-48
2022/12/08 19:59:35;;;;;;;22.27;7.63;;;;;;;25.49;28.83;100406.75;5088108;28;20035;-48
2022/12/08 20:02:04;;;;;;;17.33;5.75;;;;;;;25.50;28.46;100411.16;5090987;28;20020;-46
2022/12/08 20:04:32;;;;;;;14.27;5.22;;;;;;;25.48;28.94;100412.94;5091904;28;20431;-45
2022/12/08 20:07:01;;;;;;;16.55;6.05;;;;;;;25.45;28.63;100411.16;5092683;28;20032;-46
2022/12/08 20:09:29;;;;;;;13.25;5.07;;;;;;;25.45;28.60;100410.31;5092597;28;20031;-45
2022/12/08 20:11:57;;;;;;;12.85;4.55;;;;;;;25.47;28.62;100411.19;5091516;28;20036;-45
2022/12/08 20:14:25;;;;;;;14.23;4.85;;;;;;;25.47;28.34;100412.03;5091947;28;20024;-45
2022/12/08 20:16:53;;;;;;;14.32;4.65;;;;;;;25.45;28.85;100411.16;5088674;28;20374;-48
2022/12/08 20:19:22;;;;;;;17.40;5.07;;;;;;;25.42;28.68;100410.31;5088390;28;20556;-45
2022/12/08 20:21:50;;;;;;;12.50;4.80;;;;;;;25.39;28.43;100405.00;5093319;28;20032;-43
2022/12/08 20:24:19;;;;;;;9.18;4.00;;;;;;;25.38;28.53;100398.00;5087841;28;20066;-43
2022/12/08 20:26:48;;;;;;;10.48;3.45;;;;;;;25.43;28.42;100410.28;5092845;28;20522;-43
2022/12/08 20:29:17;;;;;;;11.68;4.45;;;;;;;25.48;28.38;100407.69;5092697;28;20035;-48
2022/12/08 20:31:46;;;;;;;11.02;4.10;;;;;;;25.43;28.35;100412.06;5092766;28;20390;-45
2022/12/08 20:34:18;;;;;;;9.30;3.08;;;;;;;25.39;28.43;100412.91;5092896;28;20577;-45